sensor_id;sensor_type;location;lat;lon;timestamp;pressure;altitude;pressure_sealevel;temperature;humidity
11053;BME280;55230;42.602;23.470;2023-03-14T00:00:47;93612.13;;;2.48;53.54
11053;BME280;55230;42.602;23.470;2023-03-14T00:03:14;93700.69;;;3.03;54.68
11053;BME280;55230;42.602;23.470;2023-03-14T00:05:41;93742.66;;;2.89;55.85
11053;BME280;55230;42.602;23.470;2023-03-14T00:08:07;93640.63;;;1.93;56.37
11053;BME280;55230;42.602;23.470;2023-03-14T00:10:36;93689.66;;;2.54;57.35
11053;BME280;55230;42.602;23.470;2023-03-14T00:13:04;93684.03;;;2.41;59.34
11053;BME280;55230;42.602;23.470;2023-03-14T00:15:32;93681.94;;;2.11;61.51
11053;BME280;55230;42.602;23.470;2023-03-14T00:17:58;93709.59;;;2.24;60.91
11053;BME280;55230;42.602;23.470;2023-03-14T00:20:25;93661.25;;;2.33;59.34
11053;BME280;55230;42.602;23.470;2023-03-14T00:22:52;93669.16;;;2.47;57.81
11053;BME280;55230;42.602;23.470;2023-03-14T00:25:19;93649.03;;;2.46;58.84
11053;BME280;55230;42.602;23.470;2023-03-14T00:27:46;93645.63;;;2.42;58.55
11053;BME280;55230;42.602;23.470;2023-03-14T00:30:14;93612.50;;;1.92;58.65
11053;BME280;55230;42.602;23.470;2023-03-14T00:32:41;93627.50;;;2.26;58.35
11053;BME280;55230;42.602;23.470;2023-03-14T00:35:08;93633.47;;;2.45;59.48
11053;BME280;55230;42.602;23.470;2023-03-14T00:37:35;93578.22;;;2.08;59.15
11053;BME280;55230;42.602;23.470;2023-03-14T00:40:02;93592.75;;;1.96;58.35
11053;BME280;55230;42.602;23.470;2023-03-14T00:42:31;93394.78;;;0.19;58.42
11053;BME280;55230;42.602;23.470;2023-03-14T00:44:58;93539.81;;;1.54;59.53
11053;BME280;55230;42.602;23.470;2023-03-14T00:47:26;93644.34;;;2.02;61.23
11053;BME280;55230;42.602;23.470;2023-03-14T00:49:53;93641.69;;;2.02;61.78
11053;BME280;55230;42.602;23.470;2023-03-14T00:52:20;92958.03;;;-2.45;62.26
11053;BME280;55230;42.602;23.470;2023-03-14T00:54:47;93621.69;;;1.80;63.29
11053;BME280;55230;42.602;23.470;2023-03-14T00:57:13;93623.38;;;1.46;64.78
11053;BME280;55230;42.602;23.470;2023-03-14T00:59:40;93595.34;;;1.35;64.56
11053;BME280;55230;42.602;23.470;2023-03-14T01:02:07;93316.25;;;-0.82;65.49
11053;BME280;55230;42.602;23.470;2023-03-14T01:04:35;93622.59;;;1.53;65.67
11053;BME280;55230;42.602;23.470;2023-03-14T01:07:03;93557.88;;;1.11;66.12
11053;BME280;55230;42.602;23.470;2023-03-14T01:09:29;93621.47;;;1.47;66.02
11053;BME280;55230;42.602;23.470;2023-03-14T01:11:56;93615.44;;;1.36;68.07
11053;BME280;55230;42.602;23.470;2023-03-14T01:14:23;93310.97;;;-0.89;67.45
11053;BME280;55230;42.602;23.470;2023-03-14T01:16:49;93596.16;;;1.14;68.98
11053;BME280;55230;42.602;23.470;2023-03-14T01:19:16;93593.16;;;1.05;69.19
11053;BME280;55230;42.602;23.470;2023-03-14T01:21:44;93494.78;;;0.33;69.51
11053;BME280;55230;42.602;23.470;2023-03-14T01:24:11;93533.03;;;0.42;70.29
11053;BME280;55230;42.602;23.470;2023-03-14T01:26:38;93591.66;;;0.90;70.38
11053;BME280;55230;42.602;23.470;2023-03-14T01:29:05;93609.53;;;0.65;71.45
11053;BME280;55230;42.602;23.470;2023-03-14T01:31:31;93554.22;;;0.49;72.17
11053;BME280;55230;42.602;23.470;2023-03-14T01:33:58;93581.84;;;0.69;72.31
11053;BME280;55230;42.602;23.470;2023-03-14T01:36:25;93528.88;;;0.41;71.89
11053;BME280;55230;42.602;23.470;2023-03-14T01:38:53;93425.94;;;-0.55;73.05
11053;BME280;55230;42.602;23.470;2023-03-14T01:41:21;93572.41;;;0.54;73.09
11053;BME280;55230;42.602;23.470;2023-03-14T01:43:50;93570.53;;;0.58;73.03
11053;BME280;55230;42.602;23.470;2023-03-14T01:46:26;93567.09;;;0.51;74.27
11053;BME280;55230;42.602;23.470;2023-03-14T01:49:05;93573.94;;;0.38;74.16
11053;BME280;55230;42.602;23.470;2023-03-14T01:51:37;93566.72;;;0.52;73.80
11053;BME280;55230;42.602;23.470;2023-03-14T01:54:11;93564.84;;;0.46;75.10
11053;BME280;55230;42.602;23.470;2023-03-14T01:56:39;93561.44;;;0.38;75.34
11053;BME280;55230;42.602;23.470;2023-03-14T01:59:08;93566.72;;;0.38;75.59
11053;BME280;55230;42.602;23.470;2023-03-14T02:01:37;93560.69;;;0.45;75.12
11053;BME280;55230;42.602;23.470;2023-03-14T02:04:06;93566.00;;;0.41;75.20
11053;BME280;55230;42.602;23.470;2023-03-14T02:06:41;93566.38;;;0.36;75.71
11053;BME280;55230;42.602;23.470;2023-03-14T02:09:11;93451.69;;;-0.35;75.92
11053;BME280;55230;42.602;23.470;2023-03-14T02:11:38;93567.50;;;0.35;76.20
11053;BME280;55230;42.602;23.470;2023-03-14T02:14:07;93589.09;;;0.37;76.43
11053;BME280;55230;42.602;23.470;2023-03-14T02:16:36;93566.00;;;0.31;76.82
11053;BME280;55230;42.602;23.470;2023-03-14T02:19:03;93567.13;;;0.33;76.75
11053;BME280;55230;42.602;23.470;2023-03-14T02:21:39;93457.72;;;-0.34;76.75
11053;BME280;55230;42.602;23.470;2023-03-14T02:24:17;93435.78;;;-0.66;76.84
11053;BME280;55230;42.602;23.470;2023-03-14T02:27:05;93562.97;;;0.39;77.06
11053;BME280;55230;42.602;23.470;2023-03-14T02:29:33;93541.00;;;0.07;76.84
11053;BME280;55230;42.602;23.470;2023-03-14T02:32:02;93516.78;;;-0.16;76.64
11053;BME280;55230;42.602;23.470;2023-03-14T02:34:29;93554.63;;;0.41;77.34
11053;BME280;55230;42.602;23.470;2023-03-14T02:36:57;93506.19;;;0.02;77.25
11053;BME280;55230;42.602;23.470;2023-03-14T02:39:30;93433.16;;;-0.31;74.38
11053;BME280;55230;42.602;23.470;2023-03-14T02:41:59;93491.00;;;0.23;73.80
11053;BME280;55230;42.602;23.470;2023-03-14T02:44:27;93560.63;;;0.73;74.08
11053;BME280;55230;42.602;23.470;2023-03-14T02:46:54;93556.47;;;0.75;74.27
11053;BME280;55230;42.602;23.470;2023-03-14T02:49:21;93494.03;;;0.32;74.98
11053;BME280;55230;42.602;23.470;2023-03-14T02:51:49;93108.47;;;-2.38;75.68
11053;BME280;55230;42.602;23.470;2023-03-14T02:54:16;93544.75;;;0.52;76.32
11053;BME280;55230;42.602;23.470;2023-03-14T02:56:43;93553.06;;;0.50;76.37
11053;BME280;55230;42.602;23.470;2023-03-14T02:59:09;93547.03;;;0.46;77.18
11053;BME280;55230;42.602;23.470;2023-03-14T03:01:38;93589.47;;;0.43;77.12
11053;BME280;55230;42.602;23.470;2023-03-14T03:04:05;93480.78;;;-0.17;76.36
11053;BME280;55230;42.602;23.470;2023-03-14T03:06:31;93563.72;;;0.36;76.35
11053;BME280;55230;42.602;23.470;2023-03-14T03:08:58;93560.31;;;0.43;74.82
11053;BME280;55230;42.602;23.470;2023-03-14T03:11:25;93570.16;;;0.42;76.25
11053;BME280;55230;42.602;23.470;2023-03-14T03:13:52;93569.38;;;0.31;76.83
11053;BME280;55230;42.602;23.470;2023-03-14T03:16:18;93535.34;;;0.09;76.76
11053;BME280;55230;42.602;23.470;2023-03-14T03:18:46;93567.50;;;0.25;76.52
11053;BME280;55230;42.602;23.470;2023-03-14T03:21:13;93508.44;;;-0.25;77.50
11053;BME280;55230;42.602;23.470;2023-03-14T03:23:41;93507.53;;;-0.99;77.41
11053;BME280;55230;42.602;23.470;2023-03-14T03:26:09;93563.72;;;0.15;78.38
11053;BME280;55230;42.602;23.470;2023-03-14T03:28:36;93510.69;;;-0.41;78.77
11053;BME280;55230;42.602;23.470;2023-03-14T03:31:07;93553.88;;;0.05;79.35
11053;BME280;55230;42.602;23.470;2023-03-14T03:33:34;93548.59;;;0.05;79.97
11053;BME280;55230;42.602;23.470;2023-03-14T03:36:02;93488.72;;;-0.63;81.30
11053;BME280;55230;42.602;23.470;2023-03-14T03:38:29;93332.44;;;-1.61;81.53
11053;BME280;55230;42.602;23.470;2023-03-14T03:40:56;93563.72;;;-0.06;81.47
11053;BME280;55230;42.602;23.470;2023-03-14T03:43:22;93559.19;;;-0.06;80.95
11053;BME280;55230;42.602;23.470;2023-03-14T03:45:49;93509.59;;;-0.26;80.48
11053;BME280;55230;42.602;23.470;2023-03-14T03:48:16;93334.38;;;-1.41;80.28
11053;BME280;55230;42.602;23.470;2023-03-14T03:50:46;93532.63;;;-0.44;80.33
11053;BME280;55230;42.602;23.470;2023-03-14T03:53:14;93472.75;;;-0.98;82.08
11053;BME280;55230;42.602;23.470;2023-03-14T03:55:41;93558.00;;;-0.29;82.73
11053;BME280;55230;42.602;23.470;2023-03-14T03:58:08;93112.16;;;-3.57;81.71
11053;BME280;55230;42.602;23.470;2023-03-14T04:00:35;93563.72;;;-0.06;81.41
11053;BME280;55230;42.602;23.470;2023-03-14T04:03:01;93588.72;;;-0.11;81.33
11053;BME280;55230;42.602;23.470;2023-03-14T04:05:28;93438.31;;;-1.16;82.17
11053;BME280;55230;42.602;23.470;2023-03-14T04:07:55;93006.41;;;-4.67;82.09
11053;BME280;55230;42.602;23.470;2023-03-14T04:10:23;93497.66;;;-1.13;81.93
11053;BME280;55230;42.602;23.470;2023-03-14T04:12:50;93365.97;;;-1.76;82.30
11053;BME280;55230;42.602;23.470;2023-03-14T04:15:17;93563.28;;;-0.36;82.11
11053;BME280;55230;42.602;23.470;2023-03-14T04:17:44;93474.22;;;-1.14;82.15
11053;BME280;55230;42.602;23.470;2023-03-14T04:20:11;93566.31;;;-0.38;82.15
11053;BME280;55230;42.602;23.470;2023-03-14T04:22:38;93517.78;;;-0.84;82.02
11053;BME280;55230;42.602;23.470;2023-03-14T04:25:06;93526.91;;;-0.67;82.33
11053;BME280;55230;42.602;23.470;2023-03-14T04:27:35;93645.38;;;-0.50;82.64
11053;BME280;55230;42.602;23.470;2023-03-14T04:30:01;93494.00;;;-0.66;82.72
11053;BME280;55230;42.602;23.470;2023-03-14T04:32:28;93489.84;;;-0.57;82.89
11053;BME280;55230;42.602;23.470;2023-03-14T04:34:55;93534.16;;;-0.22;82.69
11053;BME280;55230;42.602;23.470;2023-03-14T04:37:22;93536.81;;;-0.19;82.61
11053;BME280;55230;42.602;23.470;2023-03-14T04:39:48;93534.19;;;-0.15;82.44
11053;BME280;55230;42.602;23.470;2023-03-14T04:42:15;93465.25;;;-0.78;82.19
11053;BME280;55230;42.602;23.470;2023-03-14T04:44:43;93530.78;;;-0.16;81.91
11053;BME280;55230;42.602;23.470;2023-03-14T04:47:12;93481.56;;;-0.38;81.64
11053;BME280;55230;42.602;23.470;2023-03-14T04:49:38;93527.38;;;-0.02;81.73
11053;BME280;55230;42.602;23.470;2023-03-14T04:52:05;93457.34;;;-0.47;81.36
11053;BME280;55230;42.602;23.470;2023-03-14T04:54:32;93517.91;;;0.11;81.36
11053;BME280;55230;42.602;23.470;2023-03-14T04:56:59;93514.09;;;0.33;81.47
11053;BME280;55230;42.602;23.470;2023-03-14T04:59:25;93438.78;;;-0.01;80.14
11053;BME280;55230;42.602;23.470;2023-03-14T05:01:54;93522.00;;;0.51;79.80
11053;BME280;55230;42.602;23.470;2023-03-14T05:04:20;93517.75;;;0.88;77.14
11053;BME280;55230;42.602;23.470;2023-03-14T05:06:47;93519.56;;;1.05;76.45
11053;BME280;55230;42.602;23.470;2023-03-14T05:09:14;93512.75;;;1.04;76.77
11053;BME280;55230;42.602;23.470;2023-03-14T05:11:41;93521.03;;;1.21;76.14
11053;BME280;55230;42.602;23.470;2023-03-14T05:14:08;93496.88;;;0.87;76.17
11053;BME280;55230;42.602;23.470;2023-03-14T05:16:35;93511.47;;;1.34;75.45
11053;BME280;55230;42.602;23.470;2023-03-14T05:19:03;93524.63;;;1.58;75.94
11053;BME280;55230;42.602;23.470;2023-03-14T05:21:29;93488.34;;;1.34;75.81
11053;BME280;55230;42.602;23.470;2023-03-14T05:23:56;93523.13;;;2.12;74.52
11053;BME280;55230;42.602;23.470;2023-03-14T05:26:23;93372.84;;;1.49;72.34
11053;BME280;55230;42.602;23.470;2023-03-14T05:28:50;93347.28;;;1.18;70.53
11053;BME280;55230;42.602;23.470;2023-03-14T05:31:16;93511.78;;;2.45;69.77
11053;BME280;55230;42.602;23.470;2023-03-14T05:33:43;93496.34;;;2.70;69.60
11053;BME280;55230;42.602;23.470;2023-03-14T05:36:12;93424.16;;;2.31;66.27
11053;BME280;55230;42.602;23.470;2023-03-14T05:38:38;93340.53;;;1.98;66.11
11053;BME280;55230;42.602;23.470;2023-03-14T05:41:06;93519.56;;;3.64;65.13
11053;BME280;55230;42.602;23.470;2023-03-14T05:43:33;93511.19;;;4.15;62.26
11053;BME280;55230;42.602;23.470;2023-03-14T05:45:59;93489.50;;;4.36;61.41
11053;BME280;55230;42.602;23.470;2023-03-14T05:48:26;93413.34;;;4.08;56.82
11053;BME280;55230;42.602;23.470;2023-03-14T05:50:56;93507.63;;;5.10;53.94
11053;BME280;55230;42.602;23.470;2023-03-14T05:53:25;93286.41;;;3.68;54.61
11053;BME280;55230;42.602;23.470;2023-03-14T05:55:55;93497.59;;;4.95;53.14
11053;BME280;55230;42.602;23.470;2023-03-14T05:58:21;93515.63;;;5.10;53.29
11053;BME280;55230;42.602;23.470;2023-03-14T06:00:49;93519.59;;;5.41;52.34
11053;BME280;55230;42.602;23.470;2023-03-14T06:03:16;93404.84;;;4.36;52.45
11053;BME280;55230;42.602;23.470;2023-03-14T06:05:43;93534.31;;;5.49;51.02
11053;BME280;55230;42.602;23.470;2023-03-14T06:08:10;93498.97;;;4.83;52.95
11053;BME280;55230;42.602;23.470;2023-03-14T06:10:38;93523.88;;;4.07;57.16
11053;BME280;55230;42.602;23.470;2023-03-14T06:13:05;93142.53;;;1.76;55.77
11053;BME280;55230;42.602;23.470;2023-03-14T06:15:32;93517.47;;;4.28;57.48
11053;BME280;55230;42.602;23.470;2023-03-14T06:18:00;93498.63;;;3.89;59.94
11053;BME280;55230;42.602;23.470;2023-03-14T06:20:27;93015.25;;;0.98;59.69
11053;BME280;55230;42.602;23.470;2023-03-14T06:22:54;93519.19;;;3.92;65.05
11053;BME280;55230;42.602;23.470;2023-03-14T06:25:21;93469.72;;;3.61;65.46
11053;BME280;55230;42.602;23.470;2023-03-14T06:27:49;93462.94;;;3.29;72.44
11053;BME280;55230;42.602;23.470;2023-03-14T06:30:16;93506.88;;;3.44;73.02
11053;BME280;55230;42.602;23.470;2023-03-14T06:32:43;93273.97;;;1.72;74.12
11053;BME280;55230;42.602;23.470;2023-03-14T06:35:10;93542.16;;;2.88;75.10
11053;BME280;55230;42.602;23.470;2023-03-14T06:37:36;93507.78;;;2.67;75.49
11053;BME280;55230;42.602;23.470;2023-03-14T06:40:04;93343.44;;;1.70;74.22
11053;BME280;55230;42.602;23.470;2023-03-14T06:42:32;93508.50;;;2.71;76.61
11053;BME280;55230;42.602;23.470;2023-03-14T06:45:00;93515.34;;;2.72;76.03
11053;BME280;55230;42.602;23.470;2023-03-14T06:47:27;93519.84;;;2.79;76.15
11053;BME280;55230;42.602;23.470;2023-03-14T06:49:54;93433.06;;;2.14;76.40
11053;BME280;55230;42.602;23.470;2023-03-14T06:52:21;93473.56;;;2.69;75.26
11053;BME280;55230;42.602;23.470;2023-03-14T06:54:47;93509.00;;;2.96;77.46
11053;BME280;55230;42.602;23.470;2023-03-14T06:57:14;93462.09;;;2.72;75.85
11053;BME280;55230;42.602;23.470;2023-03-14T06:59:41;93064.50;;;0.29;73.50
11053;BME280;55230;42.602;23.470;2023-03-14T07:02:10;92998.59;;;-0.17;75.40
11053;BME280;55230;42.602;23.470;2023-03-14T07:04:37;93501.94;;;3.70;72.74
11053;BME280;55230;42.602;23.470;2023-03-14T07:07:03;93353.63;;;3.06;69.94
11053;BME280;55230;42.602;23.470;2023-03-14T07:09:31;93501.50;;;4.47;69.49
11053;BME280;55230;42.602;23.470;2023-03-14T07:11:57;93490.63;;;4.58;68.84
11053;BME280;55230;42.602;23.470;2023-03-14T07:14:24;93422.59;;;4.46;67.68
11053;BME280;55230;42.602;23.470;2023-03-14T07:16:51;93488.41;;;4.76;66.57
11053;BME280;55230;42.602;23.470;2023-03-14T07:19:19;93486.09;;;5.17;65.39
11053;BME280;55230;42.602;23.470;2023-03-14T07:21:46;93511.56;;;5.97;60.94
11053;BME280;55230;42.602;23.470;2023-03-14T07:24:12;93489.66;;;6.50;59.81
11053;BME280;55230;42.602;23.470;2023-03-14T07:26:39;93399.28;;;6.22;55.02
11053;BME280;55230;42.602;23.470;2023-03-14T07:29:06;93375.56;;;5.59;57.24
11053;BME280;55230;42.602;23.470;2023-03-14T07:31:33;93475.53;;;5.10;62.91
11053;BME280;55230;42.602;23.470;2023-03-14T07:34:00;93479.09;;;5.95;62.91
11053;BME280;55230;42.602;23.470;2023-03-14T07:36:28;93489.66;;;6.02;58.80
11053;BME280;55230;42.602;23.470;2023-03-14T07:38:55;93458.63;;;6.20;59.35
11053;BME280;55230;42.602;23.470;2023-03-14T07:41:21;93460.06;;;6.69;55.42
11053;BME280;55230;42.602;23.470;2023-03-14T07:43:48;93296.19;;;5.24;56.84
11053;BME280;55230;42.602;23.470;2023-03-14T07:46:15;93409.03;;;6.16;55.18
11053;BME280;55230;42.602;23.470;2023-03-14T07:48:42;93461.94;;;5.92;58.96
11053;BME280;55230;42.602;23.470;2023-03-14T07:51:09;93383.16;;;5.09;63.96
11053;BME280;55230;42.602;23.470;2023-03-14T07:53:37;93419.00;;;5.47;63.43
11053;BME280;55230;42.602;23.470;2023-03-14T07:56:05;93434.13;;;6.06;57.55
11053;BME280;55230;42.602;23.470;2023-03-14T07:58:32;93383.38;;;6.02;58.10
11053;BME280;55230;42.602;23.470;2023-03-14T08:00:59;93448.88;;;6.58;56.67
11053;BME280;55230;42.602;23.470;2023-03-14T08:03:26;93462.97;;;6.14;58.07
11053;BME280;55230;42.602;23.470;2023-03-14T08:05:52;93439.97;;;6.17;57.80
11053;BME280;55230;42.602;23.470;2023-03-14T08:08:19;93399.63;;;5.75;57.85
11053;BME280;55230;42.602;23.470;2023-03-14T08:10:47;93254.22;;;4.89;58.21
11053;BME280;55230;42.602;23.470;2023-03-14T08:13:14;93437.28;;;6.33;56.14
11053;BME280;55230;42.602;23.470;2023-03-14T08:15:41;93419.91;;;5.93;57.09
11053;BME280;55230;42.602;23.470;2023-03-14T08:18:08;93461.28;;;6.81;54.60
11053;BME280;55230;42.602;23.470;2023-03-14T08:20:35;93474.06;;;6.61;54.44
11053;BME280;55230;42.602;23.470;2023-03-14T08:23:02;93309.53;;;5.72;53.80
11053;BME280;55230;42.602;23.470;2023-03-14T08:25:29;93479.34;;;6.48;53.51
11053;BME280;55230;42.602;23.470;2023-03-14T08:27:58;93421.38;;;6.42;53.95
11053;BME280;55230;42.602;23.470;2023-03-14T08:30:25;93402.81;;;6.35;51.53
11053;BME280;55230;42.602;23.470;2023-03-14T08:32:52;93457.91;;;6.93;52.37
11053;BME280;55230;42.602;23.470;2023-03-14T08:35:19;93470.25;;;7.44;53.87
11053;BME280;55230;42.602;23.470;2023-03-14T08:37:45;93489.06;;;7.57;49.28
11053;BME280;55230;42.602;23.470;2023-03-14T08:40:13;93246.63;;;5.80;47.85
11053;BME280;55230;42.602;23.470;2023-03-14T08:42:42;93412.59;;;7.24;48.22
11053;BME280;55230;42.602;23.470;2023-03-14T08:45:13;93438.06;;;7.94;48.42
11053;BME280;55230;42.602;23.470;2023-03-14T08:47:39;93044.41;;;5.42;47.89
11053;BME280;55230;42.602;23.470;2023-03-14T08:50:07;93415.94;;;8.28;46.38
11053;BME280;55230;42.602;23.470;2023-03-14T08:52:34;93425.72;;;7.59;47.72
11053;BME280;55230;42.602;23.470;2023-03-14T08:55:03;93231.31;;;6.38;48.69
11053;BME280;55230;42.602;23.470;2023-03-14T08:57:30;93363.16;;;7.12;48.59
11053;BME280;55230;42.602;23.470;2023-03-14T08:59:57;93263.16;;;6.61;48.80
11053;BME280;55230;42.602;23.470;2023-03-14T09:02:25;93333.31;;;6.85;49.63
11053;BME280;55230;42.602;23.470;2023-03-14T09:04:53;93413.88;;;8.19;47.60
11053;BME280;55230;42.602;23.470;2023-03-14T09:07:19;93401.59;;;8.78;47.64
11053;BME280;55230;42.602;23.470;2023-03-14T09:09:46;93377.06;;;8.76;48.51
11053;BME280;55230;42.602;23.470;2023-03-14T09:12:13;93148.34;;;7.10;45.47
11053;BME280;55230;42.602;23.470;2023-03-14T09:14:40;93379.19;;;9.64;46.11
11053;BME280;55230;42.602;23.470;2023-03-14T09:17:07;93396.25;;;10.00;43.61
11053;BME280;55230;42.602;23.470;2023-03-14T09:19:35;93264.69;;;9.23;44.76
11053;BME280;55230;42.602;23.470;2023-03-14T09:22:02;93388.25;;;9.48;45.45
11053;BME280;55230;42.602;23.470;2023-03-14T09:24:29;93362.75;;;9.31;46.32
11053;BME280;55230;42.602;23.470;2023-03-14T09:26:56;93367.00;;;9.41;45.54
11053;BME280;55230;42.602;23.470;2023-03-14T09:29:23;93177.19;;;7.53;46.92
11053;BME280;55230;42.602;23.470;2023-03-14T09:31:50;93358.59;;;9.79;45.89
11053;BME280;55230;42.602;23.470;2023-03-14T09:34:17;93355.44;;;10.20;45.23
11053;BME280;55230;42.602;23.470;2023-03-14T09:36:45;93314.19;;;9.92;45.01
11053;BME280;55230;42.602;23.470;2023-03-14T09:39:12;93253.06;;;9.44;44.29
11053;BME280;55230;42.602;23.470;2023-03-14T09:41:41;93339.31;;;9.80;44.71
11053;BME280;55230;42.602;23.470;2023-03-14T09:44:14;93345.91;;;10.37;44.08
11053;BME280;55230;42.602;23.470;2023-03-14T09:46:44;93125.66;;;9.02;45.07
11053;BME280;55230;42.602;23.470;2023-03-14T09:49:17;93337.56;;;11.22;42.69
11053;BME280;55230;42.602;23.470;2023-03-14T09:51:50;93120.03;;;9.63;41.54
11053;BME280;55230;42.602;23.470;2023-03-14T09:54:27;93318.34;;;11.29;42.21
11053;BME280;55230;42.602;23.470;2023-03-14T09:56:56;93305.78;;;11.17;41.64
11053;BME280;55230;42.602;23.470;2023-03-14T09:59:23;93307.69;;;11.76;41.93
11053;BME280;55230;42.602;23.470;2023-03-14T10:01:50;93241.81;;;11.74;40.19
11053;BME280;55230;42.602;23.470;2023-03-14T10:04:21;93276.06;;;11.91;40.98
11053;BME280;55230;42.602;23.470;2023-03-14T10:06:50;93247.50;;;11.76;39.52
11053;BME280;55230;42.602;23.470;2023-03-14T10:09:19;93195.91;;;11.41;40.25
11053;BME280;55230;42.602;23.470;2023-03-14T10:11:54;93217.44;;;12.21;40.38
11053;BME280;55230;42.602;23.470;2023-03-14T10:14:31;93270.09;;;12.63;38.19
11053;BME280;55230;42.602;23.470;2023-03-14T10:17:06;93265.34;;;12.20;38.55
11053;BME280;55230;42.602;23.470;2023-03-14T10:19:34;93228.66;;;12.28;38.82
11053;BME280;55230;42.602;23.470;2023-03-14T10:22:04;93224.59;;;11.62;39.12
11053;BME280;55230;42.602;23.470;2023-03-14T10:24:32;93248.84;;;12.18;38.19
11053;BME280;55230;42.602;23.470;2023-03-14T10:27:01;93201.34;;;11.88;39.06
11053;BME280;55230;42.602;23.470;2023-03-14T10:29:29;93117.38;;;11.77;37.67
11053;BME280;55230;42.602;23.470;2023-03-14T10:31:59;93234.78;;;13.25;38.36
11053;BME280;55230;42.602;23.470;2023-03-14T10:34:28;93232.75;;;13.06;37.73
11053;BME280;55230;42.602;23.470;2023-03-14T10:36:58;93225.25;;;13.01;37.23
11053;BME280;55230;42.602;23.470;2023-03-14T10:39:31;93205.28;;;13.13;37.81
11053;BME280;55230;42.602;23.470;2023-03-14T10:42:05;93181.81;;;13.24;36.19
11053;BME280;55230;42.602;23.470;2023-03-14T10:44:33;93201.16;;;13.32;36.00
11053;BME280;55230;42.602;23.470;2023-03-14T10:47:02;93042.38;;;12.45;35.77
11053;BME280;55230;42.602;23.470;2023-03-14T10:49:32;93116.91;;;13.10;34.89
11053;BME280;55230;42.602;23.470;2023-03-14T10:52:14;93101.63;;;13.47;35.37
11053;BME280;55230;42.602;23.470;2023-03-14T10:54:46;93184.16;;;14.12;35.31
11053;BME280;55230;42.602;23.470;2023-03-14T10:57:13;93044.63;;;13.16;34.64
11053;BME280;55230;42.602;23.470;2023-03-14T10:59:41;93167.19;;;13.91;34.93
11053;BME280;55230;42.602;23.470;2023-03-14T11:02:22;93122.34;;;13.50;35.63
11053;BME280;55230;42.602;23.470;2023-03-14T11:04:59;92836.25;;;10.73;35.25
11053;BME280;55230;42.602;23.470;2023-03-14T11:07:33;93136.84;;;13.67;35.64
11053;BME280;55230;42.602;23.470;2023-03-14T11:10:10;93128.78;;;14.18;35.05
11053;BME280;55230;42.602;23.470;2023-03-14T11:12:45;93096.56;;;14.00;34.33
11053;BME280;55230;42.602;23.470;2023-03-14T11:15:19;93107.13;;;13.98;35.03
11053;BME280;55230;42.602;23.470;2023-03-14T11:17:56;93108.44;;;14.28;34.60
11053;BME280;55230;42.602;23.470;2023-03-14T11:20:35;92548.81;;;10.46;34.97
11053;BME280;55230;42.602;23.470;2023-03-14T11:23:09;93096.00;;;14.42;33.86
11053;BME280;55230;42.602;23.470;2023-03-14T11:25:43;93053.41;;;14.53;34.13
11053;BME280;55230;42.602;23.470;2023-03-14T11:28:18;92981.53;;;14.38;33.74
11053;BME280;55230;42.602;23.470;2023-03-14T11:30:51;93095.81;;;15.19;32.60
11053;BME280;55230;42.602;23.470;2023-03-14T11:33:21;93043.31;;;14.54;32.82
11053;BME280;55230;42.602;23.470;2023-03-14T11:35:55;92897.31;;;13.28;33.16
11053;BME280;55230;42.602;23.470;2023-03-14T11:38:30;93067.47;;;14.52;33.33
11053;BME280;55230;42.602;23.470;2023-03-14T11:41:01;93034.69;;;13.73;34.45
11053;BME280;55230;42.602;23.470;2023-03-14T11:43:30;92994.94;;;13.90;34.53
11053;BME280;55230;42.602;23.470;2023-03-14T11:46:05;93055.44;;;14.58;34.69
11053;BME280;55230;42.602;23.470;2023-03-14T11:48:39;93039.63;;;14.93;33.52
11053;BME280;55230;42.602;23.470;2023-03-14T11:51:13;93046.59;;;15.48;34.13
11053;BME280;55230;42.602;23.470;2023-03-14T11:53:47;93029.94;;;15.99;33.41
11053;BME280;55230;42.602;23.470;2023-03-14T11:56:22;92944.09;;;15.59;31.95
11053;BME280;55230;42.602;23.470;2023-03-14T11:58:55;92707.44;;;13.51;31.16
11053;BME280;55230;42.602;23.470;2023-03-14T12:01:30;92982.41;;;15.02;32.92
11053;BME280;55230;42.602;23.470;2023-03-14T12:04:04;92729.63;;;13.55;32.43
11053;BME280;55230;42.602;23.470;2023-03-14T12:06:38;93006.41;;;15.85;31.24
11053;BME280;55230;42.602;23.470;2023-03-14T12:09:12;92892.03;;;14.85;31.68
11053;BME280;55230;42.602;23.470;2023-03-14T12:11:44;92991.97;;;15.40;31.93
11053;BME280;55230;42.602;23.470;2023-03-14T12:14:19;92501.75;;;11.48;32.20
11053;BME280;55230;42.602;23.470;2023-03-14T12:16:47;92935.94;;;14.84;32.87
11053;BME280;55230;42.602;23.470;2023-03-14T12:19:28;92976.31;;;15.24;32.20
11053;BME280;55230;42.602;23.470;2023-03-14T12:21:59;92853.44;;;14.17;33.00
11053;BME280;55230;42.602;23.470;2023-03-14T12:24:29;92933.66;;;14.71;32.48
11053;BME280;55230;42.602;23.470;2023-03-14T12:26:59;92834.28;;;14.26;32.25
11053;BME280;55230;42.602;23.470;2023-03-14T12:29:27;92952.72;;;14.88;31.69
11053;BME280;55230;42.602;23.470;2023-03-14T12:32:12;92962.25;;;15.26;34.06
11053;BME280;55230;42.602;23.470;2023-03-14T12:34:46;92487.28;;;11.71;31.38
11053;BME280;55230;42.602;23.470;2023-03-14T12:37:25;92880.53;;;14.54;31.34
11053;BME280;55230;42.602;23.470;2023-03-14T12:40:13;92890.84;;;14.50;31.43
11053;BME280;55230;42.602;23.470;2023-03-14T12:42:54;92823.88;;;13.46;31.59
11053;BME280;55230;42.602;23.470;2023-03-14T12:45:26;92898.66;;;14.31;32.02
11053;BME280;55230;42.602;23.470;2023-03-14T12:47:56;92529.38;;;11.83;31.19
11053;BME280;55230;42.602;23.470;2023-03-14T12:50:31;92937.25;;;14.99;31.41
11053;BME280;55230;42.602;23.470;2023-03-14T12:53:39;92941.25;;;15.15;31.13
11053;BME280;55230;42.602;23.470;2023-03-14T12:56:20;92831.47;;;14.57;30.86
11053;BME280;55230;42.602;23.470;2023-03-14T12:58:59;92962.84;;;15.52;30.93
11053;BME280;55230;42.602;23.470;2023-03-14T13:01:29;92903.50;;;15.28;31.01
11053;BME280;55230;42.602;23.470;2023-03-14T13:04:04;92925.28;;;15.45;33.14